Time;durP1;ratioP1;P1;durP2;ratioP2;P2;SDS_P1;SDS_P2;PMS_P1;PMS_P2;Temp;Humidity;BMP_temperature;BMP_pressure;BME280_temperature;BME280_humidity;BME280_pressure;Samples;Min_cycle;Max_cycle;Signal;HPM_P1;HPM_P2
2023/12/07 00:01:34;;;;;;;;;;;;;;;-144.99;100.00;52639.69;5017949;28;19933;-79
2023/12/07 00:04:00;;;;;;;;;;;;;;;-144.99;100.00;52668.22;5024666;28;20373;-80
2023/12/07 00:06:28;;;;;;;;;;;;;;;-144.99;100.00;52660.09;5010770;28;19926;-79
2023/12/07 00:08:54;;;;;;;;;;;;;;;-144.99;100.00;52611.16;5010206;28;20096;-78
2023/12/07 00:11:22;;;;;;;;;;;;;;;-144.99;100.00;52647.84;5005968;28;20064;-79
2023/12/07 00:13:49;;;;;;;;;;;;;;;-144.99;100.00;52656.00;5015686;28;19965;-76
2023/12/07 00:16:15;;;;;;;;;;;;;;;-144.99;100.00;52635.63;5029004;28;19925;-75
2023/12/07 00:18:42;;;;;;;;;;;;;;;-144.99;100.00;52651.94;5023294;28;20028;-75
2023/12/07 00:21:08;;;;;;;;;;;;;;;-144.99;100.00;52674.34;5015597;28;20404;-76
2023/12/07 00:23:37;;;;;;;;;;;;;;;-144.99;100.00;52684.53;5014584;28;19961;-76
2023/12/07 00:26:04;;;;;;;;;;;;;;;-144.99;100.00;52684.53;5022521;28;20202;-75
2023/12/07 00:28:30;;;;;;;;;;;;;;;-144.99;100.00;52631.53;5006964;28;20008;-78
2023/12/07 00:30:57;;;;;;;;;;;;;;;-144.99;100.00;52676.38;5014273;28;19972;-79
2023/12/07 00:33:23;;;;;;;;;;;;;;;-144.99;100.00;52678.44;5014193;28;19926;-77
2023/12/07 00:35:50;;;;;;;;;;;;;;;-144.99;100.00;52660.09;5012979;28;20460;-79
2023/12/07 00:38:16;;;;;;;;;;;;;;;-144.99;100.00;52717.16;5011347;28;19964;-78
2023/12/07 00:40:44;;;;;;;;;;;;;;;-144.99;100.00;52688.63;4996000;28;19984;-77
2023/12/07 00:43:12;;;;;;;;;;;;;;;-144.99;100.00;52656.00;5003244;28;20467;-78
2023/12/07 00:45:38;;;;;;;;;;;;;;;-144.99;100.00;52676.38;5009868;28;20314;-79
2023/12/07 00:48:05;;;;;;;;;;;;;;;-144.99;100.00;52656.00;5001499;28;19972;-74
2023/12/07 00:50:32;;;;;;;;;;;;;;;-144.99;100.00;52651.94;5007298;28;19925;-75
2023/12/07 00:52:58;;;;;;;;;;;;;;;-144.99;100.00;52651.94;5016961;28;19925;-76
2023/12/07 00:55:24;;;;;;;;;;;;;;;-144.99;100.00;52639.69;5023544;28;19988;-76
2023/12/07 00:57:52;;;;;;;;;;;;;;;-144.99;100.00;52631.53;5008020;28;20028;-75
2023/12/07 01:00:19;;;;;;;;;;;;;;;-144.99;100.00;52625.44;5016122;28;20024;-76
2023/12/07 01:02:45;;;;;;;;;;;;;;;-144.99;100.00;52639.69;5013464;28;19964;-72
2023/12/07 01:05:12;;;;;;;;;;;;;;;-144.99;100.00;52662.13;5019282;28;20016;-76
2023/12/07 01:07:38;;;;;;;;;;;;;;;-144.99;100.00;52623.38;5015273;28;20350;-75
2023/12/07 01:10:05;;;;;;;;;;;;;;;-144.99;100.00;52666.19;5005299;28;19992;-78
2023/12/07 01:12:32;;;;;;;;;;;;;;;-144.99;100.00;52664.16;5018262;28;19988;-76
2023/12/07 01:15:00;;;;;;;;;;;;;;;-144.99;100.00;52680.47;5007145;28;19980;-77
2023/12/07 01:17:26;;;;;;;;;;;;;;;-144.99;100.00;52635.63;5018226;28;19932;-78
2023/12/07 01:19:53;;;;;;;;;;;;;;;-144.99;100.00;52676.38;5015044;28;19968;-77
2023/12/07 01:22:20;;;;;;;;;;;;;;;-144.99;100.00;52682.50;5005182;28;19987;-77
2023/12/07 01:24:46;;;;;;;;;;;;;;;-144.99;100.00;52656.00;5016090;28;19929;-76
2023/12/07 01:27:13;;;;;;;;;;;;;;;-144.99;100.00;52649.88;5011718;28;19933;-76
2023/12/07 01:29:39;;;;;;;;;;;;;;;-144.99;100.00;52643.78;5006024;28;19926;-76
2023/12/07 01:32:07;;;;;;;;;;;;;;;-144.99;100.00;52635.63;5025111;28;20020;-76
2023/12/07 01:34:34;;;;;;;;;;;;;;;-144.99;100.00;52645.81;5034319;28;19952;-74
2023/12/07 01:37:01;;;;;;;;;;;;;;;-144.99;100.00;52664.16;5011799;28;20016;-76
2023/12/07 01:39:27;;;;;;;;;;;;;;;-144.99;100.00;52700.84;5016287;28;19996;-75
2023/12/07 01:41:54;;;;;;;;;;;;;;;-144.99;100.00;52651.94;5013233;28;19933;-76
2023/12/07 01:44:20;;;;;;;;;;;;;;;-144.99;100.00;52635.63;5016631;28;19967;-75
2023/12/07 01:46:47;;;;;;;;;;;;;;;-144.99;100.00;52692.69;5014350;28;19930;-77
2023/12/07 01:49:15;;;;;;;;;;;;;;;-144.99;100.00;52647.84;5013123;28;19925;-79
2023/12/07 01:51:41;;;;;;;;;;;;;;;-144.99;100.00;52680.47;5017005;28;19976;-78
2023/12/07 01:54:08;;;;;;;;;;;;;;;-144.99;100.00;52625.44;5018164;28;20051;-75
2023/12/07 01:56:35;;;;;;;;;;;;;;;-144.99;100.00;52672.31;5018174;28;19937;-78
2023/12/07 01:59:02;;;;;;;;;;;;;;;-144.99;100.00;52664.16;5016334;28;20019;-79
2023/12/07 02:01:28;;;;;;;;;;;;;;;-144.99;100.00;52676.38;5011432;28;20357;-76
2023/12/07 02:03:55;;;;;;;;;;;;;;;-144.99;100.00;52660.09;5017963;28;20016;-79
2023/12/07 02:06:22;;;;;;;;;;;;;;;-144.99;100.00;52627.47;5009727;28;20024;-78
2023/12/07 02:08:49;;;;;;;;;;;;;;;-144.99;100.00;52647.84;5008922;28;19949;-77
2023/12/07 02:11:15;;;;;;;;;;;;;;;-144.99;100.00;52619.31;5015088;28;20394;-76
2023/12/07 02:13:42;;;;;;;;;;;;;;;-144.99;100.00;52656.00;5010677;28;19934;-75
2023/12/07 02:16:12;;;;;;;;;;;;;;;-144.99;100.00;52645.81;5005060;28;20020;-74
2023/12/07 02:18:41;;;;;;;;;;;;;;;-144.99;100.00;52656.00;5011316;28;19953;-78
2023/12/07 02:21:14;;;;;;;;;;;;;;;-144.99;100.00;52676.38;5015645;28;20479;-78
2023/12/07 02:23:42;;;;;;;;;;;;;;;-144.99;100.00;52647.84;5007943;28;19930;-77
2023/12/07 02:26:11;;;;;;;;;;;;;;;-144.99;100.00;52643.78;5023833;28;20415;-76
2023/12/07 02:28:38;;;;;;;;;;;;;;;-144.99;100.00;52631.53;5018667;28;20019;-76
2023/12/07 02:31:05;;;;;;;;;;;;;;;-144.99;100.00;52631.53;5013263;28;20014;-76
2023/12/07 02:33:32;;;;;;;;;;;;;;;-144.99;100.00;52631.53;5017348;28;19932;-80
2023/12/07 02:35:59;;;;;;;;;;;;;;;-144.99;100.00;52686.59;5023259;28;19968;-75
2023/12/07 02:38:27;;;;;;;;;;;;;;;-144.99;100.00;52682.50;5018645;28;19926;-74
2023/12/07 02:40:54;;;;;;;;;;;;;;;-144.99;100.00;52635.63;5015950;28;19968;-77
2023/12/07 02:43:21;;;;;;;;;;;;;;;-144.99;100.00;52660.09;5018166;28;19925;-76
2023/12/07 02:45:49;;;;;;;;;;;;;;;-144.99;100.00;52688.63;5020010;28;19971;-77
2023/12/07 02:48:17;;;;;;;;;;;;;;;-144.99;100.00;52635.63;5012597;28;20631;-76
2023/12/07 02:50:43;;;;;;;;;;;;;;;-144.99;100.00;52633.59;5015209;28;19929;-75
2023/12/07 02:53:10;;;;;;;;;;;;;;;-144.99;100.00;52615.25;5020538;28;20024;-77
2023/12/07 02:55:36;;;;;;;;;;;;;;;-144.99;100.00;52647.84;5012829;28;20448;-77
2023/12/07 02:58:03;;;;;;;;;;;;;;;-144.99;100.00;52627.47;5019622;28;20487;-76
2023/12/07 03:00:29;;;;;;;;;;;;;;;-144.99;100.00;52656.00;5004142;28;19925;-76
2023/12/07 03:02:57;;;;;;;;;;;;;;;-144.99;100.00;52645.81;5004819;28;20011;-76
2023/12/07 03:05:23;;;;;;;;;;;;;;;-144.99;100.00;52660.09;5020400;28;19966;-76
2023/12/07 03:07:50;;;;;;;;;;;;;;;-144.99;100.00;52645.81;4999700;28;19944;-77
2023/12/07 03:10:16;;;;;;;;;;;;;;;-144.99;100.00;52641.72;5015342;28;19957;-77
2023/12/07 03:12:43;;;;;;;;;;;;;;;-144.99;100.00;52672.31;5002831;28;19926;-77
2023/12/07 03:15:10;;;;;;;;;;;;;;;-144.99;100.00;52660.09;5005474;28;19925;-76
2023/12/07 03:17:36;;;;;;;;;;;;;;;-144.99;100.00;52713.09;5015555;28;19974;-79
2023/12/07 03:20:05;;;;;;;;;;;;;;;-144.99;100.00;52653.97;5020152;28;19964;-82
2023/12/07 03:22:31;;;;;;;;;;;;;;;-144.99;100.00;52651.94;5016824;28;19929;-81
2023/12/07 03:24:58;;;;;;;;;;;;;;;-144.99;100.00;52643.78;5006178;28;20012;-79
2023/12/07 03:27:24;;;;;;;;;;;;;;;-144.99;100.00;52658.03;5009540;28;19969;-77
2023/12/07 03:29:52;;;;;;;;;;;;;;;-144.99;100.00;52647.84;5010299;28;19929;-78
2023/12/07 03:32:18;;;;;;;;;;;;;;;-144.99;100.00;52664.16;5012909;28;20020;-77
2023/12/07 03:34:45;;;;;;;;;;;;;;;-144.99;100.00;52656.00;5014749;28;19989;-76
2023/12/07 03:37:12;;;;;;;;;;;;;;;-144.99;100.00;52694.72;4996376;28;19926;-77
2023/12/07 03:39:39;;;;;;;;;;;;;;;-144.99;100.00;52649.88;5013360;28;19976;-78
2023/12/07 03:42:05;;;;;;;;;;;;;;;-144.99;100.00;52668.22;5010039;28;19940;-76
2023/12/07 03:44:32;;;;;;;;;;;;;;;-144.99;100.00;52676.38;5011636;28;19925;-74
2023/12/07 03:46:58;;;;;;;;;;;;;;;-144.99;100.00;52647.84;5016093;28;19957;-74
2023/12/07 03:49:25;;;;;;;;;;;;;;;-144.99;100.00;52660.09;5014449;28;20048;-75
2023/12/07 03:51:51;;;;;;;;;;;;;;;-144.99;100.00;52676.38;5019196;28;20010;-76
2023/12/07 03:54:19;;;;;;;;;;;;;;;-144.99;100.00;52680.47;5014893;28;20313;-76
2023/12/07 03:56:46;;;;;;;;;;;;;;;-144.99;100.00;52635.63;5012869;28;19929;-76
2023/12/07 03:59:12;;;;;;;;;;;;;;;-144.99;100.00;52635.63;5016007;28;19965;-76
2023/12/07 04:01:39;;;;;;;;;;;;;;;-144.99;100.00;52680.47;5018898;28;19960;-77
2023/12/07 04:04:05;;;;;;;;;;;;;;;-144.99;100.00;52676.38;5022542;28;19988;-77
2023/12/07 04:06:32;;;;;;;;;;;;;;;-144.99;100.00;52651.94;5012142;28;19925;-79
2023/12/07 04:08:58;;;;;;;;;;;;;;;-144.99;100.00;52645.81;5011649;28;19980;-77
2023/12/07 04:11:26;;;;;;;;;;;;;;;-144.99;100.00;52631.53;5020180;28;20415;-76
2023/12/07 04:13:52;;;;;;;;;;;;;;;-144.99;100.00;52623.38;5015598;28;20408;-76
2023/12/07 04:16:19;;;;;;;;;;;;;;;-144.99;100.00;52658.03;5016377;28;20048;-78
2023/12/07 04:18:45;;;;;;;;;;;;;;;-144.99;100.00;52672.31;5000007;28;20052;-77
2023/12/07 04:21:11;;;;;;;;;;;;;;;-144.99;100.00;52684.53;4996802;28;20691;-78
2023/12/07 04:23:38;;;;;;;;;;;;;;;-144.99;100.00;52631.53;5007879;28;19925;-78
2023/12/07 04:26:05;;;;;;;;;;;;;;;-144.99;100.00;52676.38;5017300;28;21437;-76
2023/12/07 04:28:33;;;;;;;;;;;;;;;-144.99;100.00;52627.47;5011607;28;19925;-77
2023/12/07 04:30:59;;;;;;;;;;;;;;;-144.99;100.00;52684.53;5006127;28;20015;-76
2023/12/07 04:33:26;;;;;;;;;;;;;;;-144.99;100.00;52656.00;5017843;28;20001;-78
2023/12/07 04:35:52;;;;;;;;;;;;;;;-144.99;100.00;52676.38;5005038;28;20394;-74
2023/12/07 04:38:18;;;;;;;;;;;;;;;-144.99;100.00;52629.50;4999108;28;20012;-76
2023/12/07 04:40:45;;;;;;;;;;;;;;;-144.99;100.00;52680.47;5014262;28;19979;-74
2023/12/07 04:43:11;;;;;;;;;;;;;;;-144.99;100.00;52643.78;5011312;28;20104;-76
2023/12/07 04:45:39;;;;;;;;;;;;;;;-144.99;100.00;52625.44;5012233;28;19997;-75
2023/12/07 04:48:06;;;;;;;;;;;;;;;-144.99;100.00;52647.84;5012077;28;20016;-76
2023/12/07 04:50:32;;;;;;;;;;;;;;;-144.99;100.00;52643.78;5015720;28;20020;-77
2023/12/07 04:52:58;;;;;;;;;;;;;;;-144.99;100.00;52641.72;5013869;28;20012;-76
2023/12/07 04:55:26;;;;;;;;;;;;;;;-144.99;100.00;52639.69;5019060;28;19929;-77
2023/12/07 04:57:52;;;;;;;;;;;;;;;-144.99;100.00;52700.84;5016207;28;20401;-77
2023/12/07 05:00:20;;;;;;;;;;;;;;;-144.99;100.00;52649.88;5013129;28;20497;-77
2023/12/07 05:02:47;;;;;;;;;;;;;;;-144.99;100.00;52660.09;5019102;28;19925;-76
2023/12/07 05:05:14;;;;;;;;;;;;;;;-144.99;100.00;52668.22;5014004;28;20362;-77
2023/12/07 05:07:41;;;;;;;;;;;;;;;-144.99;100.00;52643.78;5010591;28;19926;-77
2023/12/07 05:10:08;;;;;;;;;;;;;;;-144.99;100.00;52647.84;5013477;28;19988;-77
2023/12/07 05:12:35;;;;;;;;;;;;;;;-144.99;100.00;52635.63;5017314;28;19933;-75
2023/12/07 05:15:02;;;;;;;;;;;;;;;-144.99;100.00;52643.78;5012810;28;19925;-76
2023/12/07 05:17:29;;;;;;;;;;;;;;;-144.99;100.00;52627.47;5013242;28;20301;-76
2023/12/07 05:19:57;;;;;;;;;;;;;;;-144.99;100.00;52664.16;5011551;28;19967;-77
2023/12/07 05:22:23;;;;;;;;;;;;;;;-144.99;100.00;52692.69;5014166;28;19961;-80
2023/12/07 05:24:50;;;;;;;;;;;;;;;-144.99;100.00;52656.00;5017377;28;19953;-80
2023/12/07 05:27:17;;;;;;;;;;;;;;;-144.99;100.00;52645.81;5031238;28;19933;-80
2023/12/07 05:29:43;;;;;;;;;;;;;;;-144.99;100.00;52656.00;5006675;28;19925;-81
2023/12/07 05:32:10;;;;;;;;;;;;;;;-144.99;100.00;52668.22;5011097;28;19931;-80
2023/12/07 05:34:37;;;;;;;;;;;;;;;-144.99;100.00;52676.38;5005786;28;19926;-81
2023/12/07 05:37:05;;;;;;;;;;;;;;;-144.99;100.00;52627.47;5005261;28;19925;-81
2023/12/07 05:39:32;;;;;;;;;;;;;;;-144.99;100.00;52660.09;5015529;28;19926;-80
2023/12/07 05:41:58;;;;;;;;;;;;;;;-144.99;100.00;52643.78;5012108;28;19929;-80
2023/12/07 05:44:25;;;;;;;;;;;;;;;-144.99;100.00;52635.63;5020867;28;19976;-80
2023/12/07 05:46:51;;;;;;;;;;;;;;;-144.99;100.00;52662.13;5018986;28;19929;-81
2023/12/07 05:49:18;;;;;;;;;;;;;;;-144.99;100.00;52647.84;5014708;28;19981;-81
2023/12/07 05:51:44;;;;;;;;;;;;;;;-144.99;100.00;52651.94;5012023;28;19926;-81
2023/12/07 05:54:12;;;;;;;;;;;;;;;-144.99;100.00;52688.63;5012086;28;19952;-81
2023/12/07 05:56:39;;;;;;;;;;;;;;;-144.99;100.00;52647.84;5022706;28;20024;-82
2023/12/07 05:59:05;;;;;;;;;;;;;;;-144.99;100.00;52670.28;5017473;28;19972;-79
2023/12/07 06:01:32;;;;;;;;;;;;;;;-144.99;100.00;52662.13;5013511;28;20368;-79
2023/12/07 06:03:59;;;;;;;;;;;;;;;-144.99;100.00;52643.78;5024204;28;19936;-79
2023/12/07 06:06:25;;;;;;;;;;;;;;;-144.99;100.00;52672.31;5018281;28;19929;-79
2023/12/07 06:08:52;;;;;;;;;;;;;;;-144.99;100.00;52631.53;5018820;28;20396;-80
2023/12/07 06:11:20;;;;;;;;;;;;;;;-144.99;100.00;52651.94;5022996;28;20007;-77
2023/12/07 06:13:46;;;;;;;;;;;;;;;-144.99;100.00;52631.53;5024746;28;19965;-78
2023/12/07 06:16:14;;;;;;;;;;;;;;;-144.99;100.00;52641.72;5012648;28;20452;-79
2023/12/07 06:18:41;;;;;;;;;;;;;;;-144.99;100.00;52660.09;5015617;28;19999;-79
2023/12/07 06:21:07;;;;;;;;;;;;;;;-144.99;100.00;52615.25;5020988;28;20459;-80
2023/12/07 06:23:35;;;;;;;;;;;;;;;-144.99;100.00;52682.50;5018812;28;20459;-78
2023/12/07 06:26:01;;;;;;;;;;;;;;;-144.99;100.00;52666.19;5020395;28;19997;-80
2023/12/07 06:28:32;;;;;;;;;;;;;;;-144.99;100.00;52676.38;5013895;28;20353;-80
2023/12/07 06:30:58;;;;;;;;;;;;;;;-144.99;100.00;52664.16;5011621;28;19933;-79
2023/12/07 06:33:25;;;;;;;;;;;;;;;-144.99;100.00;52635.63;5012841;28;20020;-79
2023/12/07 06:35:51;;;;;;;;;;;;;;;-144.99;100.00;52643.78;5024134;28;19929;-80
2023/12/07 06:38:17;;;;;;;;;;;;;;;-144.99;100.00;52635.63;5019725;28;19930;-79
2023/12/07 06:40:44;;;;;;;;;;;;;;;-144.99;100.00;52660.09;5020020;28;20309;-80
2023/12/07 06:43:11;;;;;;;;;;;;;;;-144.99;100.00;52660.09;5026886;28;20594;-76
2023/12/07 06:45:38;;;;;;;;;;;;;;;-144.99;100.00;52647.84;5017025;28;19925;-78
2023/12/07 06:48:05;;;;;;;;;;;;;;;-144.99;100.00;52674.34;5014442;28;21100;-79
2023/12/07 06:50:32;;;;;;;;;;;;;;;-144.99;100.00;52688.63;5020444;28;20024;-80
2023/12/07 06:52:58;;;;;;;;;;;;;;;-144.99;100.00;52672.31;5016626;28;19929;-79
2023/12/07 06:55:25;;;;;;;;;;;;;;;-144.99;100.00;52651.94;5020093;28;19960;-79
2023/12/07 06:57:51;;;;;;;;;;;;;;;-144.99;100.00;52641.72;5018567;28;20032;-80
2023/12/07 07:00:19;;;;;;;;;;;;;;;-144.99;100.00;52668.22;5022566;28;20001;-79
2023/12/07 07:02:47;;;;;;;;;;;;;;;-144.99;100.00;52656.00;5017624;28;19936;-77
2023/12/07 07:05:14;;;;;;;;;;;;;;;-144.99;100.00;52660.09;5010083;28;20135;-79
2023/12/07 07:07:41;;;;;;;;;;;;;;;-144.99;100.00;52631.53;5020159;28;19934;-80
2023/12/07 07:10:09;;;;;;;;;;;;;;;-144.99;100.00;52623.38;5018610;28;19926;-79
2023/12/07 07:12:36;;;;;;;;;;;;;;;-144.99;100.00;52651.94;5022394;28;19929;-79
2023/12/07 07:15:02;;;;;;;;;;;;;;;-144.99;100.00;52643.78;5016683;28;19999;-78
2023/12/07 07:17:29;;;;;;;;;;;;;;;-144.99;100.00;52660.09;5014192;28;19929;-78
2023/12/07 07:19:57;;;;;;;;;;;;;;;-144.99;100.00;52680.47;5029693;28;19941;-77
2023/12/07 07:22:24;;;;;;;;;;;;;;;-144.99;100.00;52609.13;5015588;28;19973;-79
2023/12/07 07:24:50;;;;;;;;;;;;;;;-144.99;100.00;52664.16;5022164;28;19925;-77
2023/12/07 07:27:16;;;;;;;;;;;;;;;-144.99;100.00;52686.59;5014855;28;20767;-78
2023/12/07 07:29:44;;;;;;;;;;;;;;;-144.99;100.00;52651.94;5018671;28;19949;-78
2023/12/07 07:32:10;;;;;;;;;;;;;;;-144.99;100.00;52611.16;5009352;28;20020;-79
2023/12/07 07:34:37;;;;;;;;;;;;;;;-144.99;100.00;52623.38;5020810;28;19932;-80
2023/12/07 07:37:06;;;;;;;;;;;;;;;-144.99;100.00;52660.09;5017279;28;19925;-79
2023/12/07 07:39:33;;;;;;;;;;;;;;;-144.99;100.00;52676.38;5018015;28;20413;-79
2023/12/07 07:41:59;;;;;;;;;;;;;;;-144.99;100.00;52635.63;5017061;28;19980;-78
2023/12/07 07:44:26;;;;;;;;;;;;;;;-144.99;100.00;52639.69;5022907;28;19930;-80
2023/12/07 07:46:52;;;;;;;;;;;;;;;-144.99;100.00;52627.47;5028141;28;19980;-80
2023/12/07 07:49:19;;;;;;;;;;;;;;;-144.99;100.00;52611.16;5027392;28;19929;-80
2023/12/07 07:51:45;;;;;;;;;;;;;;;-144.99;100.00;52647.84;5022533;28;20696;-80
2023/12/07 07:54:13;;;;;;;;;;;;;;;-144.99;100.00;52647.84;5006841;28;19929;-79
2023/12/07 07:56:40;;;;;;;;;;;;;;;-144.99;100.00;52668.22;5017461;28;19926;-80
2023/12/07 07:59:06;;;;;;;;;;;;;;;-144.99;100.00;52643.78;5021651;28;19934;-79
2023/12/07 08:01:32;;;;;;;;;;;;;;;-144.99;100.00;52639.69;5012746;28;20673;-79
2023/12/07 08:03:59;;;;;;;;;;;;;;;-144.99;100.00;52627.47;5018500;28;19996;-79
2023/12/07 08:06:25;;;;;;;;;;;;;;;-144.99;100.00;52656.00;5011800;28;20384;-77
2023/12/07 08:08:52;;;;;;;;;;;;;;;-144.99;100.00;52643.78;5018063;28;19980;-79
2023/12/07 08:11:20;;;;;;;;;;;;;;;-144.99;100.00;52688.63;5010974;28;19984;-76
2023/12/07 08:13:46;;;;;;;;;;;;;;;-144.99;100.00;52639.69;5013412;28;19961;-76
2023/12/07 08:16:13;;;;;;;;;;;;;;;-144.99;100.00;52619.31;5016091;28;19975;-78
2023/12/07 08:18:39;;;;;;;;;;;;;;;-144.99;100.00;52643.78;5005680;28;20015;-80
2023/12/07 08:21:08;;;;;;;;;;;;;;;-144.99;100.00;52668.22;5032927;28;19949;-78
2023/12/07 08:23:34;;;;;;;;;;;;;;;-144.99;100.00;52627.47;5020903;28;20297;-78
2023/12/07 08:26:01;;;;;;;;;;;;;;;-144.99;100.00;52668.22;5020037;28;20031;-80
2023/12/07 08:28:29;;;;;;;;;;;;;;;-144.99;100.00;52692.69;5022453;28;19929;-80
2023/12/07 08:30:56;;;;;;;;;;;;;;;-144.99;100.00;52680.47;5018140;28;19964;-80
2023/12/07 08:33:22;;;;;;;;;;;;;;;-144.99;100.00;52627.47;5027129;28;20038;-79
2023/12/07 08:35:54;;;;;;;;;;;;;;;-144.99;100.00;52627.47;5025675;28;19987;-79
2023/12/07 08:38:21;;;;;;;;;;;;;;;-144.99;100.00;52643.78;5023674;28;19925;-79
2023/12/07 08:40:48;;;;;;;;;;;;;;;-144.99;100.00;52639.69;5022109;28;19936;-79
2023/12/07 08:43:14;;;;;;;;;;;;;;;-144.99;100.00;52658.03;5018540;28;19969;-79
2023/12/07 08:45:42;;;;;;;;;;;;;;;-144.99;100.00;52680.47;5017939;28;19929;-79
2023/12/07 08:48:09;;;;;;;;;;;;;;;-144.99;100.00;52651.94;5016222;28;19958;-80
2023/12/07 08:50:35;;;;;;;;;;;;;;;-144.99;100.00;52598.94;5025987;28;19933;-79
2023/12/07 08:53:03;;;;;;;;;;;;;;;-144.99;100.00;52611.16;5011373;28;19961;-81
2023/12/07 08:55:29;;;;;;;;;;;;;;;-144.99;100.00;52639.69;5019662;28;19929;-80
2023/12/07 08:57:56;;;;;;;;;;;;;;;-144.99;100.00;52651.94;5022369;28;19925;-80
2023/12/07 09:00:25;;;;;;;;;;;;;;;-144.99;100.00;52680.47;5024854;28;19932;-77
2023/12/07 09:02:53;;;;;;;;;;;;;;;-144.99;100.00;52656.00;5005624;28;19926;-77
2023/12/07 09:05:20;;;;;;;;;;;;;;;-144.99;100.00;52684.53;5020109;28;19929;-80
2023/12/07 09:07:46;;;;;;;;;;;;;;;-144.99;100.00;52656.00;5027342;28;19930;-78
2023/12/07 09:10:13;;;;;;;;;;;;;;;-144.99;100.00;52660.09;5011722;28;19929;-77
2023/12/07 09:12:39;;;;;;;;;;;;;;;-144.99;100.00;52651.94;5011366;28;20017;-79
2023/12/07 09:15:07;;;;;;;;;;;;;;;-144.99;100.00;52651.94;5016105;28;19984;-78
2023/12/07 09:17:33;;;;;;;;;;;;;;;-144.99;100.00;52643.78;5012611;28;19925;-79
2023/12/07 09:20:01;;;;;;;;;;;;;;;-144.99;100.00;52656.00;5010804;28;19929;-79
2023/12/07 09:22:28;;;;;;;;;;;;;;;-144.99;100.00;52615.25;5009280;28;20000;-78
2023/12/07 09:24:54;;;;;;;;;;;;;;;-144.99;100.00;52676.38;5017471;28;20097;-78
2023/12/07 09:27:19;;;;;;;;;;;;;;;-144.99;100.00;52631.53;5013879;28;19930;-78
2023/12/07 09:29:47;;;;;;;;;;;;;;;-144.99;100.00;52611.16;5015004;28;19929;-77
2023/12/07 09:32:13;;;;;;;;;;;;;;;-144.99;100.00;52666.19;5013670;28;20409;-78
2023/12/07 09:34:40;;;;;;;;;;;;;;;-144.99;100.00;52672.31;5016580;28;19925;-79
2023/12/07 09:37:08;;;;;;;;;;;;;;;-144.99;100.00;52635.63;5018064;28;19934;-79
2023/12/07 09:39:35;;;;;;;;;;;;;;;-144.99;100.00;52633.59;5018720;28;19978;-77
2023/12/07 09:42:01;;;;;;;;;;;;;;;-144.99;100.00;52631.53;5013706;28;20044;-77
2023/12/07 09:44:28;;;;;;;;;;;;;;;-144.99;100.00;52635.63;5014401;28;19925;-77
2023/12/07 09:46:55;;;;;;;;;;;;;;;-144.99;100.00;52623.38;5015853;28;19926;-78
2023/12/07 09:49:20;;;;;;;;;;;;;;;-144.99;100.00;52662.13;5014741;28;20393;-77
2023/12/07 09:51:47;;;;;;;;;;;;;;;-144.99;100.00;52647.84;5004760;28;19935;-76
2023/12/07 09:54:15;;;;;;;;;;;;;;;-144.99;100.00;52656.00;5016217;28;19932;-78
2023/12/07 09:56:41;;;;;;;;;;;;;;;-144.99;100.00;52627.47;5013935;28;19929;-79
2023/12/07 09:59:08;;;;;;;;;;;;;;;-144.99;100.00;52635.63;5017725;28;19930;-79
2023/12/07 10:01:35;;;;;;;;;;;;;;;-144.99;100.00;52613.19;5016321;28;19937;-78
2023/12/07 10:04:17;;;;;;;;;;;;;;;-144.99;100.00;52639.69;5006908;28;20012;-79
2023/12/07 10:06:44;;;;;;;;;;;;;;;-144.99;100.00;52668.22;5010490;28;19925;-78
2023/12/07 10:09:12;;;;;;;;;;;;;;;-144.99;100.00;52619.31;5005870;28;19926;-79
2023/12/07 10:11:40;;;;;;;;;;;;;;;-144.99;100.00;52651.94;5013121;28;19983;-79
2023/12/07 10:14:07;;;;;;;;;;;;;;;-144.99;100.00;52668.22;5010429;28;19964;-79
2023/12/07 10:16:35;;;;;;;;;;;;;;;-144.99;100.00;52631.53;5020797;28;19926;-79
2023/12/07 10:19:13;;;;;;;;;;;;;;;-144.99;100.00;52631.53;5012565;28;20150;-79
2023/12/07 10:21:39;;;;;;;;;;;;;;;-144.99;100.00;52680.47;5020004;28;20430;-80
2023/12/07 10:24:06;;;;;;;;;;;;;;;-144.99;100.00;52643.78;5020345;28;19933;-78
2023/12/07 10:26:32;;;;;;;;;;;;;;;-144.99;100.00;52639.69;5011437;28;20028;-79
2023/12/07 10:29:00;;;;;;;;;;;;;;;-144.99;100.00;52625.44;5006918;28;19956;-79
2023/12/07 10:31:27;;;;;;;;;;;;;;;-144.99;100.00;52651.94;5016527;28;20390;-80
2023/12/07 10:33:53;;;;;;;;;;;;;;;-144.99;100.00;52647.84;5028159;28;20235;-80
2023/12/07 10:36:20;;;;;;;;;;;;;;;-144.99;100.00;52668.22;5021492;28;19969;-81
2023/12/07 10:38:50;;;;;;;;;;;;;;;-144.99;100.00;52698.81;5015044;28;20037;-78
2023/12/07 10:41:19;;;;;;;;;;;;;;;-144.99;100.00;52656.00;5024057;28;19929;-80
2023/12/07 10:43:49;;;;;;;;;;;;;;;-144.99;100.00;52680.47;5016082;28;19997;-79
2023/12/07 10:46:17;;;;;;;;;;;;;;;-144.99;100.00;52637.66;5032118;28;19925;-79
2023/12/07 10:48:45;;;;;;;;;;;;;;;-144.99;100.00;52639.69;5022816;28;20472;-79
2023/12/07 10:51:14;;;;;;;;;;;;;;;-144.99;100.00;52635.63;5014991;28;19964;-79
2023/12/07 10:53:43;;;;;;;;;;;;;;;-144.99;100.00;52615.25;5020162;28;20581;-80
2023/12/07 10:56:11;;;;;;;;;;;;;;;-144.99;100.00;52643.78;5037743;28;19940;-80
2023/12/07 10:58:38;;;;;;;;;;;;;;;-144.99;100.00;52635.63;5037716;28;19929;-80
2023/12/07 11:01:07;;;;;;;;;;;;;;;-144.99;100.00;52658.03;5016153;28;19961;-79
2023/12/07 11:03:36;;;;;;;;;;;;;;;-144.99;100.00;52635.63;5021288;28;20333;-79
2023/12/07 11:06:05;;;;;;;;;;;;;;;-144.99;100.00;52676.38;5002680;28;19933;-79
2023/12/07 11:08:37;;;;;;;;;;;;;;;-144.99;100.00;52680.47;5036081;28;19929;-80
2023/12/07 11:11:07;;;;;;;;;;;;;;;-144.99;100.00;52700.84;5025210;28;19926;-81
2023/12/07 11:13:36;;;;;;;;;;;;;;;-144.99;100.00;52651.94;5021017;28;20076;-80
2023/12/07 11:16:03;;;;;;;;;;;;;;;-144.99;100.00;52639.69;5019977;28;19933;-78
2023/12/07 11:18:30;;;;;;;;;;;;;;;-144.99;100.00;52639.69;5023314;28;20169;-79
2023/12/07 11:20:58;;;;;;;;;;;;;;;-144.99;100.00;52643.78;5008845;28;20024;-78
2023/12/07 11:23:27;;;;;;;;;;;;;;;-144.99;100.00;52637.66;5015107;28;19937;-79
2023/12/07 11:25:54;;;;;;;;;;;;;;;-144.99;100.00;52656.00;5022316;28;19995;-79
2023/12/07 11:28:34;;;;;;;;;;;;;;;-144.99;100.00;52668.22;5015076;28;19972;-79
2023/12/07 11:31:01;;;;;;;;;;;;;;;-144.99;100.00;52651.94;5015012;28;19996;-80
2023/12/07 11:33:29;;;;;;;;;;;;;;;-144.99;100.00;52643.78;5017472;28;19992;-77
2023/12/07 11:36:07;;;;;;;;;;;;;;;-144.99;100.00;52631.53;5027748;28;19979;-81
2023/12/07 11:38:34;;;;;;;;;;;;;;;-144.99;100.00;52664.16;5025633;28;19925;-80
2023/12/07 11:41:00;;;;;;;;;;;;;;;-144.99;100.00;52668.22;5018096;28;19948;-80
2023/12/07 11:43:45;;;;;;;;;;;;;;;-144.99;100.00;52633.59;5013814;28;20313;-80
2023/12/07 11:46:12;;;;;;;;;;;;;;;-144.99;100.00;52633.59;5001496;28;20025;-79
2023/12/07 11:48:39;;;;;;;;;;;;;;;-144.99;100.00;52651.94;5011011;28;20448;-77
2023/12/07 11:51:07;;;;;;;;;;;;;;;-144.99;100.00;52656.00;5020995;28;19969;-79
2023/12/07 11:53:35;;;;;;;;;;;;;;;-144.99;100.00;52660.09;5011261;28;19933;-79
2023/12/07 11:56:02;;;;;;;;;;;;;;;-144.99;100.00;52660.09;5014366;28;19972;-80
2023/12/07 11:58:30;;;;;;;;;;;;;;;-144.99;100.00;52686.59;5012429;28;20377;-80
2023/12/07 12:00:57;;;;;;;;;;;;;;;-144.99;100.00;52656.00;5009442;28;19929;-78
2023/12/07 12:03:23;;;;;;;;;;;;;;;-144.99;100.00;52637.66;5020151;28;19925;-78
2023/12/07 12:05:50;;;;;;;;;;;;;;;-144.99;100.00;52607.09;5019138;28;19987;-78
2023/12/07 12:08:18;;;;;;;;;;;;;;;-144.99;100.00;52647.84;5018256;28;20402;-79
2023/12/07 12:10:45;;;;;;;;;;;;;;;-144.99;100.00;52651.94;5018674;28;19977;-80
2023/12/07 12:13:11;;;;;;;;;;;;;;;-144.99;100.00;52680.47;5016424;28;19934;-80
2023/12/07 12:15:38;;;;;;;;;;;;;;;-144.99;100.00;52662.13;5019969;28;19925;-81
2023/12/07 12:18:05;;;;;;;;;;;;;;;-144.99;100.00;52647.84;5022067;28;19925;-80